createdAt,value
2022-10-18T00:00:29.419Z,16.32
2022-10-18T00:01:36.607Z,16.34
2022-10-18T00:02:29.214Z,16.33
2022-10-18T00:03:29.866Z,16.33
2022-10-18T00:04:29.916Z,16.33
2022-10-18T00:05:29.364Z,16.36
2022-10-18T00:06:29.103Z,16.37
2022-10-18T00:07:29.713Z,16.37
2022-10-18T00:08:29.298Z,16.37
2022-10-18T00:09:29.714Z,16.37
2022-10-18T00:10:32.338Z,16.37
2022-10-18T00:11:45.084Z,16.37
2022-10-18T00:12:29.257Z,16.40
2022-10-18T00:13:29.762Z,16.36
2022-10-18T00:14:29.803Z,16.36
2022-10-18T00:15:29.060Z,16.36
2022-10-18T00:16:28.197Z,16.34
2022-10-18T00:17:29.588Z,16.32
2022-10-18T00:18:28.993Z,16.32
2022-10-18T00:19:29.353Z,16.30
2022-10-18T00:20:29.010Z,16.32
2022-10-18T00:21:29.164Z,16.33
2022-10-18T00:22:29.135Z,16.32
2022-10-18T00:23:28.896Z,16.34
2022-10-18T00:24:28.876Z,16.34
2022-10-18T00:25:28.950Z,16.33
2022-10-18T00:26:28.930Z,16.33
2022-10-18T00:27:29.181Z,16.32
2022-10-18T00:28:28.880Z,16.30
2022-10-18T00:29:28.837Z,16.30
2022-10-18T00:30:27.847Z,16.27
2022-10-18T00:31:28.802Z,16.27
2022-10-18T00:32:29.242Z,16.29
2022-10-18T00:33:28.782Z,16.27
2022-10-18T00:34:28.794Z,16.27
2022-10-18T00:35:28.795Z,16.27
2022-10-18T00:36:28.982Z,16.27
2022-10-18T00:37:28.728Z,16.29
2022-10-18T00:38:28.759Z,16.29
2022-10-18T00:39:28.701Z,16.29
2022-10-18T00:40:28.746Z,16.32
2022-10-18T00:41:28.684Z,16.32
2022-10-18T00:42:27.785Z,16.30
2022-10-18T00:43:28.667Z,16.30
2022-10-18T00:44:28.642Z,16.32
2022-10-18T00:45:29.175Z,16.32
2022-10-18T00:46:28.925Z,16.32
2022-10-18T00:47:28.633Z,16.32
2022-10-18T00:48:28.624Z,16.30
2022-10-18T00:49:28.823Z,16.30
2022-10-18T00:50:28.621Z,16.32
2022-10-18T00:51:28.621Z,16.30
2022-10-18T00:52:28.963Z,16.30
2022-10-18T00:53:28.574Z,16.29
2022-10-18T00:54:28.590Z,16.27
2022-10-18T00:55:28.559Z,16.23
2022-10-18T00:56:28.581Z,16.23
2022-10-18T00:57:28.515Z,16.22
2022-10-18T00:58:28.805Z,16.22
2022-10-18T00:59:28.498Z,16.22
2022-10-18T01:00:28.737Z,16.17
2022-10-18T01:01:28.738Z,16.16
2022-10-18T01:02:29.507Z,16.14
2022-10-18T01:03:28.445Z,16.16
2022-10-18T01:04:28.464Z,16.16
2022-10-18T01:05:28.680Z,16.14
2022-10-18T01:06:28.489Z,16.17
2022-10-18T01:07:28.620Z,16.16
2022-10-18T01:08:28.427Z,16.17
2022-10-18T01:09:28.438Z,16.17
2022-10-18T01:10:28.420Z,16.16
2022-10-18T01:11:28.387Z,16.13
2022-10-18T01:12:28.347Z,16.13
2022-10-18T01:13:28.318Z,16.13
2022-10-18T01:14:28.359Z,16.14
2022-10-18T01:15:28.379Z,16.13
2022-10-18T01:16:28.310Z,16.14
2022-10-18T01:17:28.445Z,16.14
2022-10-18T01:18:28.511Z,16.13
2022-10-18T01:19:28.268Z,16.10
2022-10-18T01:20:28.297Z,16.08
2022-10-18T01:21:28.506Z,16.06
2022-10-18T01:22:28.234Z,16.08
2022-10-18T01:23:28.244Z,16.10
2022-10-18T01:24:28.211Z,16.10
2022-10-18T01:25:28.437Z,16.10
2022-10-18T01:26:28.199Z,16.13
2022-10-18T01:27:28.314Z,16.13
2022-10-18T01:28:28.303Z,16.13
2022-10-18T01:29:28.159Z,16.10
2022-10-18T01:30:28.428Z,16.08
2022-10-18T01:31:28.163Z,16.04
2022-10-18T01:32:28.151Z,16.04
2022-10-18T01:33:28.128Z,16.06
2022-10-18T01:34:28.674Z,16.06
2022-10-18T01:35:28.109Z,16.07
2022-10-18T01:36:28.091Z,16.08
2022-10-18T01:37:28.239Z,16.08
2022-10-18T01:38:28.279Z,16.10
2022-10-18T01:39:28.328Z,16.13
2022-10-18T01:40:28.076Z,16.11
2022-10-18T01:41:28.038Z,16.13
2022-10-18T01:42:28.019Z,16.14
2022-10-18T01:43:28.028Z,16.14
2022-10-18T01:44:27.974Z,16.17
2022-10-18T01:45:28.206Z,16.17
2022-10-18T01:46:27.958Z,16.14
2022-10-18T01:47:28.253Z,16.13
2022-10-18T01:48:27.986Z,16.10
2022-10-18T01:49:28.019Z,16.08
2022-10-18T01:50:28.006Z,16.07
2022-10-18T01:51:27.914Z,16.06
2022-10-18T01:52:28.031Z,16.06
2022-10-18T01:53:28.671Z,16.04
2022-10-18T01:54:27.894Z,16.04
2022-10-18T01:55:27.932Z,16.03
2022-10-18T01:56:27.885Z,16.06
2022-10-18T01:57:27.848Z,16.06
2022-10-18T01:58:27.886Z,16.07
2022-10-18T01:59:27.835Z,16.06
2022-10-18T02:00:28.179Z,16.04
2022-10-18T02:01:27.805Z,16.03
2022-10-18T02:02:27.987Z,15.99
2022-10-18T02:03:27.772Z,15.98
2022-10-18T02:04:27.770Z,15.99
2022-10-18T02:05:27.819Z,15.99
2022-10-18T02:06:27.995Z,15.99
2022-10-18T02:07:28.472Z,15.98
2022-10-18T02:08:27.958Z,15.96
2022-10-18T02:09:42.507Z,15.98
2022-10-18T03:17:43.421Z,15.95
2022-10-18T03:17:49.188Z,15.92
2022-10-18T05:01:01.793Z,15.92
2022-10-18T06:28:14.916Z,15.51
2022-10-18T06:29:15.921Z,15.51
2022-10-18T06:30:16.196Z,15.52
2022-10-18T06:31:15.971Z,15.55
2022-10-18T06:32:27.832Z,15.53
2022-10-18T06:33:15.864Z,15.53
2022-10-18T06:34:15.872Z,15.55
2022-10-18T06:35:16.715Z,15.55
2022-10-18T06:36:15.872Z,15.53
2022-10-18T06:37:16.681Z,15.53
2022-10-18T06:40:44.696Z,15.51
2022-10-18T06:40:49.710Z,15.40
2022-10-18T06:41:53.531Z,15.38
2022-10-18T06:43:00.289Z,15.37
2022-10-18T06:43:49.608Z,15.37
2022-10-18T06:44:49.596Z,15.37
2022-10-18T06:45:49.666Z,15.37
2022-10-18T06:48:09.319Z,15.38
2022-10-18T06:49:09.288Z,15.37
2022-10-18T06:50:09.344Z,15.34
2022-10-18T06:51:09.283Z,15.33
2022-10-18T06:52:09.308Z,15.33
2022-10-18T06:53:09.364Z,15.31
2022-10-18T06:54:24.532Z,15.34
2022-10-18T06:55:09.569Z,15.34
2022-10-18T06:56:10.621Z,15.35
2022-10-18T06:57:09.228Z,15.37
2022-10-18T06:58:09.538Z,15.35
2022-10-18T06:59:09.234Z,15.38
2022-10-18T07:00:09.258Z,15.43
2022-10-18T07:01:09.308Z,15.43
2022-10-18T07:02:09.438Z,15.43
2022-10-18T07:03:09.189Z,15.41
2022-10-18T07:04:09.204Z,15.43
2022-10-18T07:05:09.150Z,15.43
2022-10-18T07:06:09.111Z,15.43
2022-10-18T07:07:09.135Z,15.43
2022-10-18T07:08:09.147Z,15.46
2022-10-18T07:09:09.105Z,15.46
2022-10-18T07:10:11.175Z,15.48
2022-10-18T07:11:09.056Z,15.46
2022-10-18T07:12:09.015Z,15.48
2022-10-18T07:14:12.549Z,15.46
2022-10-18T07:15:09.504Z,15.48
2022-10-18T07:16:10.668Z,15.46
2022-10-18T07:17:08.998Z,15.48
2022-10-18T07:18:08.989Z,15.48
2022-10-18T07:19:08.938Z,15.48
2022-10-18T07:31:06.059Z,15.52
2022-10-18T07:32:05.136Z,15.51
2022-10-18T07:33:05.107Z,15.44
2022-10-18T07:34:05.081Z,15.44
2022-10-18T07:35:05.169Z,15.44
2022-10-18T07:36:05.036Z,15.48
2022-10-18T07:37:06.008Z,15.48
2022-10-18T07:38:05.151Z,15.49
2022-10-18T07:39:05.175Z,15.51
2022-10-18T07:40:05.264Z,15.51
2022-10-18T07:41:05.361Z,15.52
2022-10-18T07:42:05.814Z,15.55
2022-10-18T07:43:06.245Z,15.55
2022-10-18T07:44:05.241Z,15.53
2022-10-18T07:45:04.956Z,15.51
2022-10-18T07:46:04.954Z,15.48
2022-10-18T07:47:05.084Z,15.48
2022-10-18T07:48:04.973Z,15.46
2022-10-18T07:49:05.141Z,15.46
2022-10-18T07:50:04.972Z,15.46
2022-10-18T07:51:06.076Z,15.46
2022-10-18T07:52:04.949Z,15.48
2022-10-18T07:53:04.887Z,15.46
2022-10-18T07:54:04.886Z,15.44
2022-10-18T07:55:04.845Z,15.48
2022-10-18T07:56:07.288Z,15.48
2022-10-18T07:57:04.868Z,15.49
2022-10-18T07:58:04.850Z,15.51
2022-10-18T07:59:05.035Z,15.51
2022-10-18T08:00:05.054Z,15.52
2022-10-18T08:01:04.882Z,15.55
2022-10-18T08:02:04.818Z,15.58
2022-10-18T08:03:04.806Z,15.62
2022-10-18T08:04:07.976Z,15.64
2022-10-18T08:05:04.752Z,15.67
2022-10-18T08:06:05.351Z,15.68
2022-10-18T08:07:04.749Z,15.66
2022-10-18T08:08:07.900Z,15.71
2022-10-18T08:09:04.777Z,15.76
2022-10-18T08:10:04.698Z,15.76
2022-10-18T08:11:05.266Z,15.76
2022-10-18T08:12:04.667Z,15.70
2022-10-18T08:20:51.017Z,15.98
2022-10-18T08:58:33.555Z,16.52
2022-10-18T08:59:53.575Z,16.52
2022-10-18T09:20:43.262Z,16.82
2022-10-18T09:21:43.878Z,16.75
2022-10-18T09:42:51.386Z,17.47
2022-10-18T09:43:06.874Z,17.47
2022-10-18T09:44:06.858Z,17.53
2022-10-18T09:45:06.837Z,17.51
2022-10-18T09:46:06.907Z,17.58
2022-10-18T09:47:21.069Z,17.65
2022-10-18T09:48:06.951Z,17.63
2022-10-18T09:49:06.824Z,17.63
2022-10-18T09:50:06.781Z,17.62
2022-10-18T09:51:06.768Z,17.63
2022-10-18T09:52:07.110Z,17.66
2022-10-18T09:53:08.767Z,17.65
2022-10-18T09:54:06.819Z,17.62
2022-10-18T09:55:06.730Z,17.62
2022-10-18T09:56:06.724Z,17.58
2022-10-18T09:57:06.698Z,17.57
2022-10-18T09:58:06.775Z,17.62
2022-10-18T09:59:07.586Z,17.60
2022-10-18T10:00:06.660Z,17.63
2022-10-18T10:01:06.728Z,17.62
2022-10-18T10:02:06.722Z,17.63
2022-10-18T10:03:06.668Z,17.63
2022-10-18T10:04:06.683Z,17.66
2022-10-18T10:05:12.103Z,17.76
2022-10-18T10:06:06.615Z,17.86
2022-10-18T10:09:28.707Z,17.87
2022-10-18T10:10:29.892Z,17.79
2022-10-18T10:11:29.561Z,17.76
2022-10-18T10:12:29.546Z,17.70
2022-10-18T10:13:30.235Z,17.53
2022-10-18T10:14:29.789Z,17.62
2022-10-18T10:15:33.093Z,17.70
2022-10-18T10:16:29.529Z,17.73
2022-10-18T10:17:29.923Z,17.80
2022-10-18T10:18:29.507Z,17.94
2022-10-18T10:19:29.799Z,18.01
2022-10-18T10:20:29.532Z,18.11
2022-10-18T10:21:29.457Z,18.25
2022-10-18T10:22:29.467Z,18.35
2022-10-18T10:23:29.387Z,18.42
2022-10-18T10:24:31.169Z,18.38
2022-10-18T10:25:29.474Z,18.38
2022-10-18T10:26:29.362Z,18.39
2022-10-18T10:27:29.657Z,18.39
2022-10-18T10:28:29.400Z,18.36
2022-10-18T10:29:44.030Z,18.47
2022-10-18T10:30:29.422Z,18.49
2022-10-18T10:31:31.278Z,18.36
2022-10-18T10:32:29.306Z,18.29
2022-10-18T10:33:29.317Z,18.19
2022-10-18T10:34:29.561Z,18.14
2022-10-18T10:35:35.532Z,18.16
2022-10-18T10:36:29.524Z,18.21
2022-10-18T10:37:29.551Z,18.29
2022-10-18T10:38:29.500Z,18.38
2022-10-18T10:39:29.209Z,18.50
2022-10-18T10:40:29.605Z,18.56
2022-10-18T10:41:29.227Z,18.66
2022-10-18T10:42:29.378Z,18.75
2022-10-18T10:43:44.800Z,18.86
2022-10-18T10:44:29.157Z,18.94
2022-10-18T10:45:29.155Z,19.01
2022-10-18T10:46:29.175Z,18.99
2022-10-18T10:47:29.131Z,18.91
2022-10-18T10:48:40.772Z,18.93
2022-10-18T11:17:49.891Z,19.50
2022-10-18T11:18:51.803Z,19.50
2022-10-18T11:19:51.080Z,19.58
2022-10-18T11:20:50.959Z,19.50
2022-10-18T11:21:51.553Z,19.39
2022-10-18T11:22:51.343Z,19.47
2022-10-18T11:25:03.000Z,19.64
2022-10-18T11:26:03.917Z,19.68
2022-10-18T11:27:03.926Z,19.70
2022-10-18T11:28:04.031Z,19.78
2022-10-18T11:29:03.939Z,19.80
2022-10-18T11:30:03.916Z,19.83
2022-10-18T11:31:03.858Z,19.80
2022-10-18T11:32:03.887Z,19.80
2022-10-18T11:33:03.874Z,19.76
2022-10-18T11:34:09.304Z,19.64
2022-10-18T11:35:03.836Z,19.62
2022-10-18T11:36:04.035Z,19.68
2022-10-18T11:37:26.636Z,19.78
2022-10-18T11:38:03.792Z,19.83
2022-10-18T11:39:03.774Z,19.95
2022-10-18T11:40:03.834Z,19.89
2022-10-18T11:41:03.787Z,19.94
2022-10-18T11:42:03.876Z,19.87
2022-10-18T11:43:03.732Z,19.87
2022-10-18T11:44:04.075Z,19.92
2022-10-18T11:45:03.733Z,20.01
2022-10-18T11:46:03.771Z,20.02
2022-10-18T11:47:03.683Z,20.10
2022-10-18T11:48:04.014Z,20.15
2022-10-18T11:49:03.706Z,20.25
2022-10-18T11:50:03.685Z,20.22
2022-10-18T11:53:05.275Z,20.27
2022-10-18T11:54:06.227Z,20.25
2022-10-18T11:55:06.172Z,20.23
2022-10-18T11:56:06.193Z,20.22
2022-10-18T11:57:06.155Z,20.30
2022-10-18T11:58:05.186Z,20.31
2022-10-18T11:59:06.178Z,20.31
2022-10-18T12:00:06.247Z,20.34
2022-10-18T12:01:06.115Z,20.30
2022-10-18T12:02:06.130Z,20.41
2022-10-18T12:03:06.204Z,20.48
2022-10-18T12:04:06.085Z,20.46
2022-10-18T12:06:06.138Z,20.33
2022-10-18T12:07:06.130Z,20.41
2022-10-18T12:08:06.067Z,20.50
2022-10-18T12:09:06.955Z,20.51
2022-10-18T12:10:06.003Z,20.61
2022-10-18T12:11:07.453Z,20.58
2022-10-18T12:12:09.597Z,20.60
2022-10-18T12:13:06.162Z,20.64
2022-10-18T12:14:06.029Z,20.63
2022-10-18T12:15:06.799Z,20.66
2022-10-18T12:16:06.177Z,20.75
2022-10-18T12:17:39.639Z,20.69
2022-10-18T12:18:06.188Z,20.63
2022-10-18T12:53:45.924Z,20.97
2022-10-18T12:54:45.007Z,20.91
2022-10-18T12:55:44.742Z,20.94
2022-10-18T12:56:44.666Z,21.01
2022-10-18T12:58:00.984Z,21.06
2022-10-18T12:58:44.626Z,20.98
2022-10-18T12:59:44.641Z,20.93
2022-10-18T13:00:44.640Z,20.87
2022-10-18T13:01:44.677Z,20.88
2022-10-18T13:02:44.685Z,20.85
2022-10-18T13:03:44.620Z,20.87
2022-10-18T13:04:44.992Z,20.72
2022-10-18T13:05:53.008Z,20.73
2022-10-18T13:06:44.566Z,20.63
2022-10-18T13:07:44.545Z,20.53
2022-10-18T13:08:58.149Z,20.56
2022-10-18T13:17:59.818Z,20.68
2022-10-18T13:20:26.177Z,20.85
2022-10-18T13:38:37.255Z,20.85
2022-10-18T13:41:34.340Z,20.82
2022-10-18T13:42:31.752Z,20.88
2022-10-18T13:43:31.509Z,20.94
2022-10-18T13:44:31.464Z,21.01
2022-10-18T13:45:31.455Z,21.09
2022-10-18T13:46:31.441Z,21.15
2022-10-18T13:47:31.426Z,21.18
2022-10-18T13:48:31.484Z,21.19
2022-10-18T13:49:31.449Z,21.15
2022-10-18T13:50:31.412Z,21.15
2022-10-18T13:51:31.390Z,21.11
2022-10-18T13:52:38.857Z,21.09
2022-10-18T13:53:31.412Z,21.05
2022-10-18T13:54:31.346Z,21.09
2022-10-18T13:56:51.386Z,20.94
2022-10-18T13:57:51.093Z,20.96
2022-10-18T13:59:13.033Z,20.96
2022-10-18T13:59:51.118Z,20.96
2022-10-18T14:00:51.064Z,20.96
2022-10-18T14:01:53.276Z,20.97
2022-10-18T14:02:54.588Z,20.93
2022-10-18T14:03:57.526Z,20.97
2022-10-18T14:04:51.021Z,20.97
2022-10-18T14:05:51.053Z,20.93
2022-10-18T14:06:51.051Z,20.87
2022-10-18T14:07:50.979Z,20.88
2022-10-18T14:08:50.967Z,20.96
2022-10-18T14:09:54.148Z,20.79
2022-10-18T14:12:31.342Z,20.72
2022-10-18T14:13:31.924Z,20.72
2022-10-18T14:14:31.970Z,20.81
2022-10-18T14:15:31.980Z,20.88
2022-10-18T14:16:31.940Z,20.94
2022-10-18T14:17:31.982Z,20.91
2022-10-18T14:19:50.057Z,20.83
2022-10-18T14:21:12.231Z,20.87
2022-10-18T14:21:50.986Z,20.87
2022-10-18T14:22:50.997Z,20.82
2022-10-18T14:23:51.054Z,20.79
2022-10-18T14:24:50.942Z,20.82
2022-10-18T14:25:50.940Z,20.85
2022-10-18T14:26:51.078Z,20.85
2022-10-18T14:27:54.414Z,20.91
2022-10-18T14:28:59.862Z,20.90
2022-10-18T14:29:51.002Z,20.91
2022-10-18T14:30:50.884Z,20.90
2022-10-18T14:31:50.893Z,20.83
2022-10-18T14:32:50.872Z,20.78
2022-10-18T14:33:54.886Z,20.72
2022-10-18T14:34:50.927Z,20.73
2022-10-18T14:36:51.141Z,20.60
2022-10-18T14:37:51.065Z,20.54
2022-10-18T14:38:50.842Z,20.46
2022-10-18T14:39:50.828Z,20.50
2022-10-18T14:40:50.861Z,20.58
2022-10-18T14:41:50.757Z,20.68
2022-10-18T14:42:51.015Z,20.72
2022-10-18T14:43:51.539Z,20.73
2022-10-18T14:44:54.273Z,20.71
2022-10-18T14:45:50.755Z,20.63
2022-10-18T14:46:50.945Z,20.60
2022-10-18T14:47:50.683Z,20.57
2022-10-18T14:48:50.675Z,20.54
2022-10-18T14:49:50.710Z,20.44
2022-10-18T14:50:50.725Z,20.44
2022-10-18T14:51:50.920Z,20.50
2022-10-18T14:52:50.641Z,20.51
2022-10-18T14:53:50.871Z,20.56
2022-10-18T14:54:50.672Z,20.35
2022-10-18T14:55:50.593Z,20.35
2022-10-18T14:56:50.696Z,20.41
2022-10-18T14:57:51.521Z,20.46
2022-10-18T14:58:50.853Z,20.34
2022-10-18T14:59:50.564Z,20.31
2022-10-18T15:00:50.594Z,20.20
2022-10-18T15:01:50.535Z,20.12
2022-10-18T15:12:02.562Z,20.02
2022-10-18T15:13:09.230Z,20.04
2022-10-18T15:14:00.417Z,20.07
2022-10-18T15:15:00.363Z,20.07
2022-10-18T15:16:00.356Z,19.98
2022-10-18T15:17:04.593Z,19.83
2022-10-18T15:18:00.324Z,19.89
2022-10-18T15:19:00.315Z,19.97
2022-10-18T15:20:03.419Z,19.97
2022-10-18T15:21:00.355Z,19.97
2022-10-18T15:22:30.243Z,19.98
2022-10-18T15:23:00.299Z,19.90
2022-10-18T15:24:00.622Z,19.97
2022-10-18T15:25:02.887Z,19.89
2022-10-18T15:34:34.208Z,19.62
2022-10-18T15:35:35.167Z,19.61
2022-10-18T15:36:51.446Z,19.61
2022-10-18T15:41:41.306Z,19.55
2022-10-18T15:41:46.472Z,19.42
2022-10-18T15:42:46.312Z,19.38
2022-10-18T15:43:46.229Z,19.31
2022-10-18T18:20:45.025Z,12.19
2022-10-18T18:21:45.939Z,12.13
2022-10-18T18:22:46.166Z,12.11
2022-10-18T18:23:46.017Z,12.07
2022-10-18T18:24:45.876Z,12.05
2022-10-18T18:25:45.978Z,12.05
2022-10-18T18:26:45.892Z,12.01
2022-10-18T18:27:45.836Z,11.97
2022-10-18T18:28:45.993Z,11.94
2022-10-18T18:29:46.710Z,11.90
2022-10-18T18:30:45.862Z,11.88
2022-10-18T18:31:46.199Z,11.85
2022-10-18T18:32:50.273Z,11.85
2022-10-18T18:33:46.138Z,11.84
2022-10-18T18:34:46.439Z,11.77
2022-10-18T18:35:45.727Z,11.74
2022-10-18T18:36:46.720Z,11.69
2022-10-18T18:59:28.755Z,11.42
2022-10-18T19:00:27.644Z,11.41
2022-10-18T19:01:27.400Z,11.38
2022-10-18T19:02:27.959Z,11.38
2022-10-18T19:03:27.319Z,11.38
2022-10-18T19:04:27.554Z,11.38
2022-10-18T19:05:27.234Z,11.38
2022-10-18T19:06:28.873Z,11.36
2022-10-18T19:07:27.378Z,11.36
2022-10-18T19:08:27.239Z,11.38
2022-10-18T19:09:27.663Z,11.39
2022-10-18T19:10:27.231Z,11.39
2022-10-18T19:11:27.241Z,11.38
2022-10-18T19:12:27.190Z,11.35
2022-10-18T19:13:27.149Z,11.35
2022-10-18T19:14:31.459Z,11.31
2022-10-18T19:15:27.151Z,11.31
2022-10-18T19:16:27.141Z,11.30
2022-10-18T19:17:27.428Z,11.31
2022-10-18T19:18:27.178Z,11.31
2022-10-18T19:19:27.251Z,11.30
2022-10-18T19:20:27.086Z,11.30
2022-10-18T19:21:26.023Z,11.27
2022-10-18T19:22:27.166Z,11.26
2022-10-18T19:23:27.248Z,11.26
2022-10-18T19:24:27.112Z,11.26
2022-10-18T19:25:27.202Z,11.28
2022-10-18T19:26:30.499Z,11.27
2022-10-18T19:27:30.335Z,11.26
2022-10-18T19:28:28.286Z,11.26
2022-10-18T19:29:28.917Z,11.23
2022-10-18T19:30:26.351Z,11.23
2022-10-18T19:31:26.987Z,11.21
2022-10-18T19:33:41.220Z,11.13
2022-10-18T19:34:27.239Z,11.11
2022-10-18T19:35:27.016Z,11.08
2022-10-18T19:36:27.263Z,11.03
2022-10-18T19:37:27.679Z,11.05
2022-10-18T19:38:27.247Z,11.03
2022-10-18T19:39:27.219Z,11.03
2022-10-18T19:40:27.451Z,11.03
2022-10-18T19:41:26.845Z,11.02
2022-10-18T19:42:30.335Z,10.99
2022-10-18T19:43:26.855Z,10.98
2022-10-18T19:44:26.868Z,10.95
2022-10-18T19:45:26.788Z,10.93
2022-10-18T19:46:26.830Z,10.91
2022-10-18T19:47:26.769Z,10.91
2022-10-18T19:48:26.710Z,10.90
2022-10-18T19:49:26.745Z,10.88
2022-10-18T19:51:28.314Z,10.86
2022-10-18T19:52:27.001Z,10.83
2022-10-18T19:53:26.676Z,10.78
2022-10-18T19:54:26.696Z,10.78
2022-10-18T19:55:26.693Z,10.76
2022-10-18T19:56:26.628Z,10.73
2022-10-18T19:57:26.666Z,10.73
2022-10-18T19:58:26.651Z,10.76
2022-10-18T19:59:26.894Z,10.76
2022-10-18T20:00:26.604Z,10.75
2022-10-18T20:01:26.917Z,10.72
2022-10-18T20:02:26.808Z,10.69
2022-10-18T20:03:26.807Z,10.69
2022-10-18T20:04:27.340Z,10.69
2022-10-18T20:05:26.577Z,10.68
2022-10-18T20:06:26.549Z,10.68
2022-10-18T20:07:26.529Z,10.66
2022-10-18T20:08:26.466Z,10.68
2022-10-18T20:09:26.491Z,10.70
2022-10-18T20:10:26.540Z,10.70
2022-10-18T20:11:26.496Z,10.72
2022-10-18T20:12:26.467Z,10.72
2022-10-18T20:13:26.430Z,10.70
2022-10-18T20:14:26.445Z,10.72
2022-10-18T20:15:26.387Z,10.70
2022-10-18T20:16:28.785Z,10.70
2022-10-18T20:17:26.395Z,10.68
2022-10-18T20:18:26.702Z,10.69
2022-10-18T20:19:26.501Z,10.69
2022-10-18T20:20:26.556Z,10.68
2022-10-18T20:21:26.347Z,10.68
2022-10-18T20:22:26.672Z,10.68
2022-10-18T20:23:26.587Z,10.63
2022-10-18T20:24:26.653Z,10.62
2022-10-18T20:25:26.452Z,10.62
2022-10-18T20:26:26.600Z,10.58
2022-10-18T20:27:26.517Z,10.55
2022-10-18T20:28:26.387Z,10.51
2022-10-18T20:29:26.349Z,10.46
2022-10-18T20:30:26.728Z,10.44
2022-10-18T20:31:26.266Z,10.43
2022-10-18T20:32:28.142Z,10.36
